createdAt,value
2023-03-06T00:00:38.193Z,24.60
2023-03-06T00:03:06.134Z,21.02
2023-03-06T00:05:33.253Z,24.65
2023-03-06T00:08:00.345Z,25.58
2023-03-06T00:10:29.925Z,25.33
2023-03-06T00:13:00.393Z,23.25
2023-03-06T00:15:28.258Z,25.27
2023-03-06T00:17:56.166Z,22.33
2023-03-06T00:20:24.506Z,23.67
2023-03-06T00:22:51.521Z,23.98
2023-03-06T00:25:21.286Z,21.42
2023-03-06T00:27:49.103Z,25.73
2023-03-06T00:30:21.931Z,19.42
2023-03-06T00:32:49.556Z,19.67
2023-03-06T00:35:17.227Z,21.23
2023-03-06T00:37:44.802Z,21.42
2023-03-06T00:40:14.959Z,24.55
2023-03-06T00:45:09.818Z,21.55
2023-03-06T00:47:37.658Z,19.63
2023-03-06T00:50:05.369Z,23.85
2023-03-06T00:52:32.661Z,21.08
2023-03-06T00:54:59.807Z,18.15
2023-03-06T00:57:27.106Z,18.95
2023-03-06T00:59:54.192Z,21.67
2023-03-06T01:02:21.525Z,17.73
2023-03-06T01:04:49.260Z,17.27
2023-03-06T01:07:16.411Z,22.83
2023-03-06T01:09:43.439Z,22.75
2023-03-06T01:12:10.593Z,21.00
2023-03-06T01:14:37.640Z,17.65
2023-03-06T01:17:04.967Z,21.00
2023-03-06T01:19:32.049Z,21.38
2023-03-06T01:21:59.190Z,20.00
2023-03-06T01:24:26.348Z,20.33
2023-03-06T01:26:56.762Z,20.52
2023-03-06T01:29:23.932Z,21.17
2023-03-06T01:31:51.197Z,22.13
2023-03-06T01:34:18.792Z,21.35
2023-03-06T01:36:45.864Z,19.52
2023-03-06T01:39:13.030Z,22.25
2023-03-06T01:41:40.106Z,23.42
2023-03-06T01:44:07.142Z,19.23
2023-03-06T01:46:42.225Z,18.48
2023-03-06T01:49:30.918Z,20.25
2023-03-06T01:52:03.508Z,23.17
2023-03-06T01:54:41.043Z,20.83
2023-03-06T01:57:30.858Z,18.60
2023-03-06T02:00:20.414Z,16.45
2023-03-06T02:02:55.276Z,20.17
2023-03-06T02:05:22.726Z,20.90
2023-03-06T02:07:50.960Z,19.70
2023-03-06T02:10:19.004Z,19.77
2023-03-06T02:12:47.501Z,19.33
2023-03-06T02:15:17.487Z,23.33
2023-03-06T02:20:34.820Z,19.35
2023-03-06T02:23:13.969Z,19.20
2023-03-06T02:25:49.850Z,21.38
2023-03-06T02:28:20.707Z,19.45
2023-03-06T02:33:18.099Z,19.00
2023-03-06T02:36:04.020Z,15.90
2023-03-06T02:38:40.917Z,19.63
2023-03-06T02:41:08.798Z,21.02
2023-03-06T02:43:39.352Z,20.55
2023-03-06T02:46:07.701Z,19.58
2023-03-06T02:48:35.108Z,21.92
2023-03-06T02:51:02.255Z,22.42
2023-03-06T02:53:29.280Z,20.52
2023-03-06T02:55:58.962Z,23.25
2023-03-06T02:58:25.978Z,26.30
2023-03-06T03:00:53.278Z,17.98
2023-03-06T03:03:21.293Z,24.60
2023-03-06T03:05:48.300Z,22.25
2023-03-06T03:08:22.959Z,19.92
2023-03-06T03:10:53.833Z,20.88
2023-03-06T03:13:21.032Z,21.05
2023-03-06T03:16:03.255Z,25.88
2023-03-06T03:18:30.465Z,25.27
2023-03-06T03:20:57.587Z,29.08
2023-03-06T03:23:25.081Z,28.02
2023-03-06T03:25:52.099Z,29.98
2023-03-06T03:28:20.298Z,28.27
2023-03-06T03:30:47.436Z,31.23
2023-03-06T03:33:14.542Z,30.42
2023-03-06T03:35:43.525Z,30.45
2023-03-06T03:38:10.624Z,27.40
2023-03-06T03:40:39.246Z,28.95
2023-03-06T03:43:06.387Z,28.10
2023-03-06T03:45:33.549Z,27.73
2023-03-06T03:48:00.575Z,33.15
2023-03-06T03:50:27.630Z,29.38
2023-03-06T03:52:54.775Z,27.05
2023-03-06T03:55:21.861Z,29.50
2023-03-06T03:57:49.221Z,28.88
2023-03-06T04:00:17.138Z,30.63
2023-03-06T04:03:01.207Z,25.45
2023-03-06T04:05:36.121Z,26.50
2023-03-06T04:08:06.020Z,32.47
2023-03-06T04:10:34.585Z,29.00
2023-03-06T04:13:02.857Z,26.73
2023-03-06T04:15:29.995Z,32.55
2023-03-06T04:17:57.175Z,27.23
2023-03-06T04:22:56.418Z,27.58
2023-03-06T04:25:23.925Z,27.25
2023-03-06T04:27:51.180Z,26.77
2023-03-06T04:30:18.497Z,26.48
2023-03-06T04:32:45.608Z,27.50
2023-03-06T04:35:12.734Z,25.58
2023-03-06T04:37:52.121Z,27.20
2023-03-06T04:40:27.678Z,29.90
2023-03-06T04:42:56.778Z,26.35
2023-03-06T04:45:24.430Z,30.73
2023-03-06T04:47:51.489Z,28.92
2023-03-06T04:50:19.324Z,26.67
2023-03-06T04:52:46.809Z,28.75
2023-03-06T04:55:17.379Z,27.13
2023-03-06T04:57:46.303Z,29.60
2023-03-06T05:00:22.581Z,32.95
2023-03-06T05:02:50.616Z,31.20
2023-03-06T05:05:19.040Z,31.23
2023-03-06T05:07:46.063Z,32.30
2023-03-06T05:10:17.057Z,31.08
2023-03-06T05:12:44.492Z,28.38
2023-03-06T05:15:13.382Z,31.60
2023-03-06T05:17:40.772Z,36.20
2023-03-06T05:20:11.317Z,34.97
2023-03-06T05:22:38.713Z,30.20
2023-03-06T05:25:06.761Z,32.42
2023-03-06T05:27:34.117Z,30.25
2023-03-06T05:30:01.161Z,29.35
2023-03-06T05:32:28.540Z,31.73
2023-03-06T05:34:56.197Z,33.90
2023-03-06T05:37:23.594Z,34.50
2023-03-06T05:39:51.701Z,33.42
2023-03-06T05:42:18.798Z,33.90
2023-03-06T05:44:46.226Z,33.78
2023-03-06T05:47:13.916Z,30.85
2023-03-06T05:49:41.028Z,31.80
2023-03-06T05:52:08.921Z,33.33
2023-03-06T05:54:37.437Z,31.30
2023-03-06T05:57:05.478Z,36.40
2023-03-06T05:59:33.339Z,35.22
2023-03-06T06:02:01.467Z,35.85
2023-03-06T06:04:29.689Z,33.85
2023-03-06T06:06:59.564Z,33.40
2023-03-06T06:09:27.398Z,32.30
2023-03-06T06:11:57.251Z,37.90
2023-03-06T06:14:24.807Z,35.03
2023-03-06T06:16:52.759Z,34.15
2023-03-06T06:19:20.484Z,36.60
2023-03-06T06:21:49.049Z,35.00
2023-03-06T06:24:17.751Z,40.03
2023-03-06T06:26:45.618Z,39.20
2023-03-06T06:29:13.913Z,38.00
2023-03-06T06:31:41.617Z,42.47
2023-03-06T06:34:11.008Z,42.40
2023-03-06T06:36:38.685Z,35.95
2023-03-06T06:39:06.699Z,39.50
2023-03-06T06:41:51.027Z,38.58
2023-03-06T06:44:21.512Z,43.30
2023-03-06T06:47:21.347Z,40.30
2023-03-06T06:49:37.936Z,40.47
2023-03-06T06:52:06.472Z,39.70
2023-03-06T06:54:34.929Z,46.55
2023-03-06T06:57:02.103Z,42.33
2023-03-06T06:59:29.218Z,41.42
2023-03-06T07:01:56.258Z,42.60
2023-03-06T07:04:23.547Z,37.80
2023-03-06T07:06:50.602Z,38.47
2023-03-06T07:09:17.943Z,39.78
2023-03-06T07:11:45.010Z,41.80
2023-03-06T07:14:12.109Z,40.22
2023-03-06T07:16:39.866Z,43.25
2023-03-06T07:19:07.906Z,35.85
2023-03-06T07:21:35.011Z,40.60
2023-03-06T07:24:02.171Z,43.33
2023-03-06T07:26:29.348Z,40.30
2023-03-06T07:28:56.497Z,50.63
2023-03-06T07:31:26.560Z,46.65
2023-03-06T07:36:23.699Z,45.47
2023-03-06T07:38:50.728Z,41.30
2023-03-06T07:41:21.864Z,43.25
2023-03-06T07:43:50.431Z,40.40
2023-03-06T07:46:17.826Z,37.15
2023-03-06T07:48:44.925Z,43.00
2023-03-06T07:51:20.508Z,43.45
2023-03-06T07:53:49.314Z,42.03
2023-03-06T07:56:17.163Z,44.80
2023-03-06T07:58:46.029Z,38.95
2023-03-06T08:01:16.486Z,36.47
2023-03-06T08:03:44.104Z,37.95
2023-03-06T08:06:16.314Z,34.15
2023-03-06T08:08:45.990Z,40.15
2023-03-06T08:11:16.076Z,35.70
2023-03-06T08:13:43.899Z,33.70
2023-03-06T08:16:11.175Z,28.98
2023-03-06T08:18:41.481Z,33.75
2023-03-06T08:21:12.038Z,30.92
2023-03-06T08:23:40.039Z,30.70
2023-03-06T08:26:19.870Z,27.67
2023-03-06T08:28:47.205Z,25.73
2023-03-06T08:31:36.181Z,24.00
2023-03-06T08:34:06.437Z,23.40
2023-03-06T08:39:01.137Z,14.82
2023-03-06T08:41:28.419Z,10.93
2023-03-06T08:43:55.474Z,13.45
2023-03-06T08:46:25.179Z,11.88
2023-03-06T08:48:52.441Z,13.55
2023-03-06T08:51:20.422Z,11.77
2023-03-06T08:53:47.837Z,12.63
2023-03-06T08:56:27.162Z,13.65
2023-03-06T08:58:55.419Z,11.90
2023-03-06T09:01:31.280Z,13.43
2023-03-06T09:04:00.400Z,14.02
2023-03-06T09:06:31.194Z,13.80
2023-03-06T09:08:58.336Z,19.25
2023-03-06T09:11:26.634Z,14.65
2023-03-06T09:13:54.838Z,16.80
2023-03-06T09:16:22.061Z,15.20
2023-03-06T09:18:53.216Z,15.80
2023-03-06T09:21:25.227Z,13.60
2023-03-06T09:23:52.282Z,13.27
2023-03-06T09:26:19.758Z,15.27
2023-03-06T09:28:47.238Z,12.20
2023-03-06T09:31:17.686Z,8.38
2023-03-06T09:33:45.226Z,11.20
2023-03-06T09:36:21.305Z,10.73
2023-03-06T09:38:50.181Z,9.38
2023-03-06T09:41:41.774Z,7.15
2023-03-06T09:44:26.300Z,8.25
2023-03-06T09:47:15.326Z,8.95
2023-03-06T09:50:01.052Z,12.45
2023-03-06T09:52:46.169Z,10.00
2023-03-06T09:55:16.105Z,13.05
2023-03-06T09:58:25.607Z,11.45
2023-03-06T10:01:07.302Z,11.35
2023-03-06T10:03:38.311Z,12.05
2023-03-06T10:06:26.484Z,12.32
2023-03-06T10:09:11.243Z,12.82
2023-03-06T10:11:59.115Z,12.85
2023-03-06T10:14:38.020Z,18.10
2023-03-06T10:17:06.422Z,15.77
2023-03-06T10:19:36.270Z,11.10
2023-03-06T10:22:37.207Z,17.67
2023-03-06T10:25:24.930Z,15.30
2023-03-06T10:28:04.603Z,11.27
2023-03-06T10:30:50.900Z,13.57
2023-03-06T10:33:47.349Z,10.77
2023-03-06T10:36:19.703Z,22.30
2023-03-06T10:38:48.930Z,11.05
2023-03-06T10:41:36.830Z,8.87
2023-03-06T10:44:04.039Z,11.18
2023-03-06T10:46:40.081Z,9.48
2023-03-06T10:49:30.797Z,15.00
2023-03-06T10:52:20.915Z,17.55
2023-03-06T10:54:48.667Z,17.55
2023-03-06T10:57:24.561Z,14.57
2023-03-06T10:59:55.935Z,16.73
2023-03-06T11:02:39.812Z,14.02
2023-03-06T11:05:19.412Z,15.70
2023-03-06T11:08:00.750Z,19.45
2023-03-06T11:10:30.426Z,14.45
2023-03-06T11:13:03.188Z,12.77
2023-03-06T11:15:31.099Z,15.30
2023-03-06T11:18:24.514Z,14.00
2023-03-06T11:20:54.756Z,13.52
2023-03-06T11:23:41.371Z,16.50
2023-03-06T11:26:26.588Z,15.80
2023-03-06T11:29:23.230Z,15.60
2023-03-06T11:32:31.625Z,14.68
2023-03-06T11:35:06.463Z,12.48
2023-03-06T11:38:05.063Z,11.95
2023-03-06T11:40:40.631Z,14.45
2023-03-06T11:43:35.573Z,12.63
2023-03-06T11:46:21.848Z,15.02
2023-03-06T11:48:54.549Z,13.23
2023-03-06T11:51:26.170Z,15.02
2023-03-06T11:53:54.476Z,11.32
2023-03-06T11:56:55.387Z,15.23
2023-03-06T11:59:47.288Z,14.20
2023-03-06T12:02:37.927Z,11.75
2023-03-06T12:05:37.631Z,12.02
2023-03-06T12:08:23.344Z,12.07
2023-03-06T12:11:01.800Z,12.35
2023-03-06T12:14:02.117Z,12.88
2023-03-06T12:16:49.286Z,14.48
2023-03-06T12:19:43.931Z,14.30
2023-03-06T12:22:22.836Z,11.82
2023-03-06T12:24:52.775Z,14.43
2023-03-06T12:27:22.533Z,13.98
2023-03-06T12:29:55.755Z,15.18
2023-03-06T12:32:35.432Z,12.57
2023-03-06T12:35:31.918Z,16.98
2023-03-06T12:38:08.218Z,16.15
2023-03-06T12:41:01.293Z,15.57
2023-03-06T12:43:38.936Z,13.70
2023-03-06T12:46:16.208Z,14.45
2023-03-06T12:48:48.964Z,13.52
2023-03-06T12:51:20.697Z,16.08
2023-03-06T12:53:49.960Z,18.00
2023-03-06T12:56:19.060Z,17.60
2023-03-06T12:58:54.650Z,15.88
2023-03-06T13:01:49.133Z,18.55
2023-03-06T13:04:27.769Z,14.63
2023-03-06T13:07:00.130Z,14.80
2023-03-06T13:09:36.898Z,20.05
2023-03-06T13:12:15.791Z,17.98
2023-03-06T13:14:53.906Z,20.80
2023-03-06T13:17:24.639Z,21.13
2023-03-06T13:20:13.938Z,19.83
2023-03-06T13:22:45.717Z,17.35
2023-03-06T13:25:18.838Z,19.75
2023-03-06T13:27:54.965Z,15.23
2023-03-06T13:30:23.646Z,16.85
2023-03-06T13:32:55.070Z,18.65
2023-03-06T13:35:32.280Z,21.83
2023-03-06T13:38:00.676Z,17.70
2023-03-06T13:40:36.724Z,19.73
2023-03-06T13:43:15.276Z,19.65
2023-03-06T13:45:43.989Z,20.85
2023-03-06T13:48:47.675Z,18.75
2023-03-06T13:51:24.344Z,20.42
2023-03-06T13:54:09.772Z,20.38
2023-03-06T13:56:55.805Z,22.17
2023-03-06T13:59:34.829Z,21.65
2023-03-06T14:02:39.610Z,29.27
2023-03-06T14:05:15.514Z,23.83
2023-03-06T14:07:45.102Z,19.83
2023-03-06T14:10:25.019Z,20.55
2023-03-06T14:12:58.623Z,18.55
2023-03-06T14:15:43.158Z,21.95
2023-03-06T14:18:14.830Z,22.85
2023-03-06T14:20:50.971Z,20.38
2023-03-06T14:23:42.717Z,19.48
2023-03-06T14:26:26.672Z,18.10
2023-03-06T14:28:53.704Z,19.67
2023-03-06T14:31:24.683Z,26.30
2023-03-06T14:33:54.673Z,22.40
2023-03-06T14:36:25.432Z,22.70
2023-03-06T14:39:08.973Z,21.35
2023-03-06T14:41:37.051Z,21.17
2023-03-06T14:44:16.901Z,21.98
2023-03-06T14:46:55.297Z,21.92
2023-03-06T14:49:25.338Z,23.73
2023-03-06T14:51:56.969Z,23.13
2023-03-06T14:54:31.359Z,22.92
2023-03-06T14:57:06.102Z,24.73
2023-03-06T14:59:49.167Z,26.65
2023-03-06T15:02:21.741Z,24.10
2023-03-06T15:05:00.405Z,22.75
2023-03-06T15:07:32.648Z,25.67
2023-03-06T15:10:01.306Z,21.92
2023-03-06T15:12:31.335Z,24.60
2023-03-06T15:15:00.190Z,22.52
2023-03-06T15:17:27.306Z,23.15
2023-03-06T15:19:57.504Z,26.63
2023-03-06T15:25:09.418Z,38.63
2023-03-06T15:27:36.614Z,25.63
2023-03-06T15:30:22.416Z,23.02
2023-03-06T15:32:49.852Z,29.67
2023-03-06T15:35:29.145Z,25.35
2023-03-06T15:37:57.566Z,22.83
2023-03-06T15:40:27.136Z,21.40
2023-03-06T15:42:54.534Z,26.00
2023-03-06T15:45:23.931Z,22.38
2023-03-06T15:47:53.554Z,23.50
2023-03-06T15:50:23.365Z,23.27
2023-03-06T15:52:51.124Z,23.63
2023-03-06T15:55:21.127Z,21.17
2023-03-06T15:57:54.957Z,24.42
2023-03-06T16:00:28.705Z,25.45
2023-03-06T16:02:57.225Z,21.38
2023-03-06T16:05:25.054Z,21.13
2023-03-06T16:07:52.260Z,24.27
2023-03-06T16:10:22.588Z,24.88
2023-03-06T16:13:13.098Z,24.95
2023-03-06T16:15:45.541Z,22.02
2023-03-06T16:18:13.290Z,22.98
2023-03-06T16:20:41.807Z,20.08
2023-03-06T16:23:12.325Z,17.88
2023-03-06T16:25:45.866Z,19.85
2023-03-06T16:28:16.620Z,19.05
2023-03-06T16:30:44.691Z,19.67
2023-03-06T16:33:13.351Z,20.95
2023-03-06T16:35:41.469Z,17.63
2023-03-06T16:38:10.625Z,18.45
2023-03-06T16:40:41.491Z,16.58
2023-03-06T16:43:10.808Z,16.58
2023-03-06T16:45:40.972Z,16.77
2023-03-06T16:48:11.253Z,19.83
2023-03-06T16:50:40.020Z,19.25
2023-03-06T16:53:08.115Z,17.30
2023-03-06T16:55:35.248Z,19.13
2023-03-06T16:58:02.516Z,17.77
2023-03-06T17:00:33.355Z,18.25
2023-03-06T17:03:01.884Z,18.52
2023-03-06T17:05:29.709Z,21.55
2023-03-06T17:07:56.851Z,20.95
2023-03-06T17:10:26.509Z,21.45
2023-03-06T17:12:55.519Z,23.83
2023-03-06T17:15:23.143Z,19.35
2023-03-06T17:17:51.778Z,20.52
2023-03-06T17:20:19.735Z,20.33
2023-03-06T17:22:46.842Z,22.95
2023-03-06T17:25:16.293Z,25.65
2023-03-06T17:27:43.357Z,26.03
2023-03-06T17:30:11.295Z,31.50
2023-03-06T17:32:41.192Z,33.65
2023-03-06T17:35:09.558Z,23.45
2023-03-06T17:37:36.840Z,24.65
2023-03-06T17:40:04.364Z,22.73
2023-03-06T17:42:31.492Z,23.98
2023-03-06T17:44:58.605Z,24.98
2023-03-06T17:47:25.719Z,22.23
2023-03-06T17:49:52.741Z,22.98
2023-03-06T17:52:19.775Z,21.08
2023-03-06T17:54:50.002Z,24.17
2023-03-06T17:57:17.129Z,24.75
2023-03-06T17:59:48.703Z,27.48
2023-03-06T18:02:16.631Z,29.75
2023-03-06T18:04:43.869Z,27.63
2023-03-06T18:07:11.328Z,27.30
2023-03-06T18:09:38.788Z,28.40
2023-03-06T18:12:06.207Z,28.27
2023-03-06T18:14:33.265Z,30.23
2023-03-06T18:17:00.515Z,27.15
2023-03-06T18:19:27.710Z,28.92
2023-03-06T18:21:54.909Z,30.65
2023-03-06T18:24:22.001Z,29.90
2023-03-06T18:26:49.185Z,28.98
2023-03-06T18:29:16.923Z,28.52
2023-03-06T18:31:44.094Z,31.23
2023-03-06T18:34:13.990Z,26.02
2023-03-06T18:36:43.725Z,28.75
2023-03-06T18:39:13.205Z,27.67
2023-03-06T18:41:41.557Z,27.23
2023-03-06T18:44:08.947Z,25.55
2023-03-06T18:46:38.418Z,29.90
2023-03-06T18:49:06.211Z,26.15
2023-03-06T18:51:34.047Z,26.40
2023-03-06T18:54:02.725Z,26.55
2023-03-06T18:56:30.464Z,29.58
2023-03-06T18:59:01.760Z,29.38
2023-03-06T19:01:30.891Z,40.75
2023-03-06T19:04:03.544Z,44.53
2023-03-06T19:06:30.895Z,45.58
2023-03-06T19:09:02.399Z,50.10
2023-03-06T19:11:30.593Z,43.40
2023-03-06T19:13:58.788Z,48.75
2023-03-06T19:16:28.340Z,42.55
2023-03-06T19:18:56.206Z,39.72
2023-03-06T19:21:26.007Z,47.10
2023-03-06T19:23:53.762Z,41.72
2023-03-06T19:26:21.338Z,42.80
2023-03-06T19:28:49.172Z,44.28
2023-03-06T19:31:21.457Z,44.70
2023-03-06T19:33:50.349Z,47.53
2023-03-06T19:36:18.821Z,47.58
2023-03-06T19:38:50.549Z,46.92
2023-03-06T19:41:18.170Z,48.80
2023-03-06T19:43:49.029Z,47.17
2023-03-06T19:46:16.852Z,52.20
2023-03-06T19:48:44.704Z,55.80
2023-03-06T19:51:11.902Z,56.25
2023-03-06T19:53:40.098Z,52.58
2023-03-06T19:56:10.622Z,58.97
2023-03-06T19:58:38.465Z,53.55
2023-03-06T20:01:17.637Z,61.22
2023-03-06T20:03:44.768Z,51.73
2023-03-06T20:06:18.613Z,51.53
2023-03-06T20:08:46.828Z,53.20
2023-03-06T20:11:21.989Z,49.22
2023-03-06T20:13:49.914Z,47.83
2023-03-06T20:16:18.255Z,52.45
2023-03-06T20:18:45.937Z,49.90
2023-03-06T20:21:15.057Z,51.55
2023-03-06T20:23:42.655Z,46.83
2023-03-06T20:26:15.138Z,56.22
2023-03-06T20:28:43.059Z,48.80
2023-03-06T20:31:16.942Z,48.83
2023-03-06T20:33:45.525Z,49.15
2023-03-06T20:36:18.915Z,52.25
2023-03-06T20:38:47.033Z,48.45
2023-03-06T20:41:15.809Z,46.78
2023-03-06T20:43:43.805Z,48.47
2023-03-06T20:46:12.620Z,52.50
2023-03-06T20:48:41.165Z,50.10
2023-03-06T20:51:15.124Z,54.95
2023-03-06T20:53:42.202Z,53.83
2023-03-06T20:56:14.047Z,52.22
2023-03-06T20:58:41.327Z,54.35
2023-03-06T21:01:08.655Z,51.50
2023-03-06T21:03:35.966Z,56.63
2023-03-06T21:06:03.074Z,52.25
2023-03-06T21:08:31.391Z,55.28
2023-03-06T21:10:58.577Z,54.40
2023-03-06T21:13:25.717Z,55.15
2023-03-06T21:15:52.820Z,49.78
2023-03-06T21:18:19.896Z,52.88
2023-03-06T21:20:46.993Z,53.58
2023-03-06T21:23:14.081Z,51.67
2023-03-06T21:25:52.273Z,50.80
2023-03-06T21:28:19.732Z,56.00
2023-03-06T21:30:47.071Z,50.08
2023-03-06T21:33:16.182Z,54.83
2023-03-06T21:35:45.345Z,61.42
2023-03-06T21:38:13.901Z,49.83
2023-03-06T21:40:40.971Z,53.42
2023-03-06T21:43:09.052Z,57.50
2023-03-06T21:45:36.146Z,62.17
2023-03-06T21:48:04.231Z,56.58
2023-03-06T21:50:31.276Z,56.72
2023-03-06T21:52:58.450Z,48.10
2023-03-06T21:55:25.605Z,52.53
2023-03-06T21:57:54.084Z,57.80
2023-03-06T22:00:23.913Z,51.03
2023-03-06T22:02:51.130Z,51.20
2023-03-06T22:05:18.690Z,57.88
2023-03-06T22:07:45.815Z,58.70
2023-03-06T22:10:14.432Z,57.85
2023-03-06T22:12:42.204Z,49.22
2023-03-06T22:15:09.901Z,52.10
2023-03-06T22:17:37.011Z,51.72
2023-03-06T22:20:04.678Z,53.20
2023-03-06T22:22:31.772Z,53.58
2023-03-06T22:24:58.950Z,57.53
2023-03-06T22:27:26.059Z,53.92
2023-03-06T22:29:53.411Z,45.97
2023-03-06T22:32:20.739Z,49.35
2023-03-06T22:34:47.829Z,60.33
2023-03-06T22:37:14.929Z,49.10
2023-03-06T22:39:41.990Z,51.78
2023-03-06T22:42:09.114Z,52.08
2023-03-06T22:44:36.156Z,47.67
2023-03-06T22:47:03.348Z,52.53
2023-03-06T22:49:30.353Z,51.60
2023-03-06T22:51:57.432Z,43.47
2023-03-06T22:54:24.471Z,50.83
2023-03-06T22:56:51.494Z,55.33
2023-03-06T22:59:18.591Z,50.88
2023-03-06T23:01:45.733Z,44.03
2023-03-06T23:04:12.985Z,50.58
2023-03-06T23:06:43.313Z,45.42
2023-03-06T23:09:14.900Z,52.42
2023-03-06T23:12:00.850Z,44.47
2023-03-06T23:14:49.904Z,45.33
2023-03-06T23:17:36.241Z,44.27
2023-03-06T23:20:22.167Z,48.63
2023-03-06T23:23:08.035Z,45.53
2023-03-06T23:25:41.309Z,50.60
2023-03-06T23:28:08.445Z,43.22
2023-03-06T23:30:35.526Z,42.25
2023-03-06T23:33:02.612Z,41.22
2023-03-06T23:35:29.737Z,44.13
2023-03-06T23:37:57.736Z,43.33
2023-03-06T23:40:25.072Z,44.28
2023-03-06T23:42:52.203Z,40.42
2023-03-06T23:45:19.515Z,44.03
2023-03-06T23:47:46.625Z,39.80
2023-03-06T23:50:14.367Z,44.33
2023-03-06T23:52:41.398Z,41.20
2023-03-06T23:55:09.185Z,39.45
2023-03-06T23:57:36.232Z,39.72
